Aviation Digital Data Service (ADDS)

Output produced by METARs form (1228 UTC 25 June 2019)
found at http://www.aviationweather.gov/metar/data/
 
Forecast for: LKPR (PRAGUE/RUZYNE , CZ)
Text: TAF LKPR 251100Z 2512/2618 13012KT CAVOK
Forecast period: 1200 UTC 25 June 2019 to 0000 UTC 26 June 2019
Forecast type: FROM: standard forecast or significant change
Winds: from the SE (130 degrees) at 14 MPH (12 knots; 6.2 m/s)
Visibility: 6 or more miles 10+ km)
Ceiling: unknown
Clouds: missing
Weather: NSW  (no significant weather)
Text: BECMG 2600/2602 VRB02KT
Forecast period: 0000 to 0900 UTC 26 June 2019
Forecast type: BECOMING: Conditions expected to become as follows by 0200 UTC 26 June 2019
Winds: variable direction winds at 2 MPH (2 knots; 1.0 m/s)
Visibility: 6 or more miles 10+ km)
Ceiling: unknown
Clouds: missing
Weather: NSW  (no significant weather)
Text: BECMG 2609/2611 03005KT
Forecast period: 0900 to 1800 UTC 26 June 2019
Forecast type: BECOMING: Conditions expected to become as follows by 1100 UTC 26 June 2019
Winds: from the NNE (30 degrees) at 6 MPH (5 knots; 2.6 m/s)
Visibility: 6 or more miles 10+ km)
Ceiling: unknown
Clouds: missing
Weather: NSW  (no significant weather)